Other Surface Observations
Issued by NWS Missoula, MT

Home | Current Version | Previous Version | Text Only | Print | Product List | Glossary On
Versions: 1 2 3 4 5 6 7 8 9 10 11 12 13 14 15 16 17 18 19 20 21 22 23 24 25 26 27 28 29 30 31 32 33 34 35 36 37 38 39 40 41 42 43 44 45 46 47 48 49 50
000
SXUS55 KMSO 260303
OSOMSO
MONTANA AWOS SUMMARY
NATIONAL WEATHER SERVICE MISSOULA MT
903 PM MDT THU MAY 25 2017

Montana AWOS Reports

LAUREL      |K6S8 260255Z AUTO 00000KT 40SM 09/M01 A2985 RMK AO1 T00941010
ROUNDUP     |KRPX 260255Z AUTO 27005KT 40SM 10/M01 A2976 RMK AO1 T01001005
EKALAKA     |K97M 260255Z AUTO 28009G16KT 40SM 09/03 A2975 RMK AO1 T00940028
PLAINS      |KS34 260255Z AUTO 00000KT 40SM 15/03 A2982 RMK AO1 T01500033
TWIN BRIDGES|K7S1 260255Z AUTO 34008KT 40SM 10/M02 A2986 RMK AO1 T01001021
SCOBEY      |K9S2 260255Z AUTO 27016G24KT 40SM 10/00 A2962 RMK AO1 T01000000




USA.gov is the U.S. government's official web portal to all federal, state and local government web resources and services.